Time;durP1;ratioP1;P1;durP2;ratioP2;P2;SDS_P1;SDS_P2;PMS_P1;PMS_P2;Temp;Humidity;BMP_temperature;BMP_pressure;BME280_temperature;BME280_humidity;BME280_pressure;Samples;Min_cycle;Max_cycle;Signal;HPM_P1;HPM_P2
2023/07/27 00:01:18;;;;;;;;;5.00;4.00;;;;;14.54;91.53;99213.66;6314931;20;2756542;-53
2023/07/27 00:03:46;;;;;;;;;3.50;3.50;;;;;14.58;91.95;99211.53;6286931;20;2746267;-49
2023/07/27 00:06:13;;;;;;;;;5.00;3.50;;;;;14.56;91.85;99218.91;6284387;20;2754450;-46
2023/07/27 00:08:40;;;;;;;;;3.00;3.00;;;;;14.59;91.89;99213.28;6284700;20;2735747;-47
2023/07/27 00:11:08;;;;;;;;;6.00;3.00;;;;;14.54;92.20;99215.50;6284676;20;2750419;-46
2023/07/27 00:13:35;;;;;;;;;4.50;4.50;;;;;14.60;91.98;99218.53;6284872;20;2748252;-47
2023/07/27 00:16:03;;;;;;;;;3.00;3.00;;;;;14.56;91.81;99229.72;6283363;20;2729453;-48
2023/07/27 00:18:30;;;;;;;;;3.00;3.00;;;;;14.44;92.62;99229.75;6282258;20;2730511;-50
2023/07/27 00:20:57;;;;;;;;;4.00;4.00;;;;;14.48;93.12;99222.22;6281682;20;2748260;-48
2023/07/27 00:23:25;;;;;;;;;3.00;1.50;;;;;14.37;93.99;99225.00;6301113;20;1804577;-46
2023/07/27 00:25:55;;;;;;;;;4.60;4.00;;;;;14.43;94.47;99219.94;6337625;20;2746313;-47
2023/07/27 00:28:24;;;;;;;;;6.60;5.00;;;;;14.54;94.42;99216.34;6337153;20;2748226;-47
2023/07/27 00:30:53;;;;;;;;;4.50;4.50;;;;;14.36;95.11;99223.28;6313525;20;2740983;-45
2023/07/27 00:33:20;;;;;;;;;5.00;5.00;;;;;14.40;95.58;99230.13;6283192;20;2748227;-48
2023/07/27 00:35:58;;;;;;;;;5.00;5.00;;;;;14.35;95.33;99226.97;6281673;20;2738856;-47
2023/07/27 00:38:27;;;;;;;;;3.50;3.50;;;;;14.33;95.70;99224.41;6281456;20;2727404;-49
2023/07/27 00:40:54;;;;;;;;;4.00;4.00;;;;;14.19;96.06;99222.00;6286973;20;2734691;-46
2023/07/27 00:43:22;;;;;;;;;5.00;5.00;;;;;14.38;95.82;99215.94;6279388;20;2747121;-46
2023/07/27 00:45:50;;;;;;;;;5.50;5.00;;;;;14.26;95.75;99217.81;6286804;20;2748231;-45
2023/07/27 00:48:18;;;;;;;;;5.00;5.00;;;;;14.25;96.20;99226.91;6281112;20;2750294;-47
2023/07/27 00:50:50;;;;;;;;;4.29;4.00;;;;;14.19;96.09;99228.28;6323590;20;3458729;-44
2023/07/27 00:53:18;;;;;;;;;6.00;4.00;;;;;14.27;95.61;99231.19;6314684;20;2748206;-45
2023/07/27 00:55:46;;;;;;;;;4.00;4.00;;;;;14.24;96.10;99226.06;6280012;20;2736743;-46
2023/07/27 00:58:14;;;;;;;;;4.50;4.50;;;;;14.27;95.76;99233.91;6278347;20;2750297;-50
2023/07/27 01:00:42;;;;;;;;;3.00;3.00;;;;;14.28;95.70;99238.28;6287457;20;2741966;-47
2023/07/27 01:03:10;;;;;;;;;7.00;5.00;;;;;14.24;95.70;99236.84;6288501;20;2729456;-45
2023/07/27 01:05:37;;;;;;;;;6.00;4.00;;;;;14.19;95.76;99239.09;6287402;20;2742075;-47
2023/07/27 01:08:05;;;;;;;;;5.50;5.50;;;;;14.17;96.88;99242.91;6287807;20;2740417;-47
2023/07/27 01:10:57;;;;;;;;;5.00;3.50;;;;;14.13;95.83;99244.97;6287567;20;2752349;-46
2023/07/27 01:13:56;;;;;;;;;6.00;6.00;;;;;14.25;95.89;99253.91;6281993;20;2736778;-45
2023/07/27 01:17:10;;;;;;;;;5.00;5.00;;;;;14.09;95.80;99257.03;6283052;20;2747143;-49
2023/07/27 01:20:33;;;;;;;;;2.00;2.00;;;;;14.10;95.71;99256.03;6283801;20;2755502;-46
2023/07/27 01:23:33;;;;;;;;;4.60;4.60;;;;;14.13;95.17;99261.16;6308064;20;2750375;-48
2023/07/27 01:26:39;;;;;;;;;5.00;5.00;;;;;13.96;95.63;99250.94;6317310;20;2750305;-45
2023/07/27 01:29:51;;;;;;;;;5.00;4.00;;;;;14.09;94.88;99248.94;6288756;20;2750444;-45
2023/07/27 01:32:20;;;;;;;;;6.00;6.00;;;;;14.07;94.47;99240.09;6282315;20;2737785;-46
2023/07/27 01:34:56;;;;;;;;;4.50;4.00;;;;;14.16;94.00;99255.50;6287542;20;2737778;-46
2023/07/27 01:37:26;;;;;;;;;3.00;3.00;;;;;14.05;93.68;99252.84;6280575;20;2750300;-46
2023/07/27 01:39:55;;;;;;;;;2.50;2.50;;;;;14.04;93.67;99256.56;6286651;20;2733586;-49
2023/07/27 01:42:24;;;;;;;;;2.00;2.00;;;;;14.16;93.31;99250.13;6284539;20;2736710;-46
2023/07/27 01:44:53;;;;;;;;;4.00;4.00;;;;;14.09;92.90;99248.94;6285532;20;2753455;-44
2023/07/27 01:47:23;;;;;;;;;4.00;3.00;;;;;14.13;92.86;99253.06;6287463;20;2748278;-45
2023/07/27 01:49:52;;;;;;;;;4.00;4.00;;;;;14.11;92.51;99254.19;6283536;20;2754473;-47
2023/07/27 01:52:21;;;;;;;;;4.00;4.00;;;;;14.02;92.54;99253.13;6284156;20;2754644;-46
2023/07/27 01:54:49;;;;;;;;;5.00;4.00;;;;;14.13;91.75;99255.78;6287953;20;2751330;-45
2023/07/27 01:57:17;;;;;;;;;3.50;3.50;;;;;14.03;91.80;99250.31;6285380;20;2748192;-47
2023/07/27 01:59:46;;;;;;;;;3.00;3.00;;;;;14.11;91.68;99260.44;6289268;20;2749241;-47
2023/07/27 02:02:15;;;;;;;;;4.00;2.00;;;;;14.11;91.71;99267.69;6286989;20;2732546;-45
2023/07/27 02:04:43;;;;;;;;;3.00;2.00;;;;;14.03;91.21;99263.81;6286983;20;2731516;-46
2023/07/27 02:07:10;;;;;;;;;2.00;2.00;;;;;14.09;90.82;99264.28;6285736;20;2752404;-47
2023/07/27 02:09:37;;;;;;;;;4.00;4.00;;;;;14.12;91.03;99264.03;6286286;20;2754455;-45
2023/07/27 02:12:15;;;;;;;;;4.25;4.00;;;;;14.00;90.78;99265.88;6303824;20;1810839;-45
2023/07/27 02:14:49;;;;;;;;;4.00;4.00;;;;;14.10;90.95;99266.84;6315923;20;2754575;-52
2023/07/27 02:17:29;;;;;;;;;2.00;2.00;;;;;13.98;90.38;99263.31;6286498;20;2746183;-45
2023/07/27 02:19:58;;;;;;;;;2.50;2.50;;;;;13.97;90.53;99269.69;6287002;20;2739906;-48
2023/07/27 02:22:27;;;;;;;;;3.00;3.00;;;;;13.97;90.92;99271.53;6284286;20;2739877;-46
2023/07/27 02:24:54;;;;;;;;;3.00;3.00;;;;;13.99;90.49;99265.03;6285757;20;2770105;-45
2023/07/27 02:27:22;;;;;;;;;3.50;2.00;;;;;13.92;90.94;99268.34;6284928;20;2737761;-45
2023/07/27 02:29:49;;;;;;;;;3.50;3.00;;;;;13.92;90.92;99274.59;6279456;20;2752920;-45
2023/07/27 02:32:17;;;;;;;;;3.00;3.00;;;;;13.92;90.67;99262.94;6284260;20;2746115;-47
2023/07/27 02:34:45;;;;;;;;;4.00;4.00;;;;;13.88;91.17;99272.31;6302733;20;1822858;-46
2023/07/27 02:37:12;;;;;;;;;4.00;3.00;;;;;13.76;91.80;99280.41;6317259;20;2749224;-47
2023/07/27 02:39:39;;;;;;;;;3.00;3.00;;;;;13.62;92.39;99280.66;6286011;20;2748741;-51
2023/07/27 02:42:06;;;;;;;;;2.00;2.00;;;;;13.62;92.42;99283.38;6282215;20;2756212;-50
2023/07/27 02:44:34;;;;;;;;;4.00;3.00;;;;;13.43;93.52;99267.81;6286830;20;2748337;-48
2023/07/27 02:47:01;;;;;;;;;2.50;2.50;;;;;13.49;92.99;99271.84;6283007;20;2739398;-48
2023/07/27 02:49:28;;;;;;;;;4.00;4.00;;;;;13.50;93.33;99273.56;6290507;20;2754535;-45
2023/07/27 02:51:55;;;;;;;;;2.00;2.00;;;;;13.53;92.88;99273.31;6283161;20;2747162;-46
2023/07/27 02:54:23;;;;;;;;;4.00;4.00;;;;;13.61;92.43;99273.53;6282111;20;2748333;-47
2023/07/27 02:56:51;;;;;;;;;3.00;3.00;;;;;13.60;92.09;99269.13;6301848;20;1807264;-46
2023/07/27 02:59:19;;;;;;;;;1.00;1.00;;;;;13.60;91.92;99274.53;6332378;20;1802979;-47
2023/07/27 03:01:46;;;;;;;;;3.00;3.00;;;;;13.59;92.03;99275.53;6315434;20;2752373;-45
2023/07/27 03:04:13;;;;;;;;;3.00;3.00;;;;;13.60;91.91;99269.13;6286560;20;2735700;-45
2023/07/27 03:06:41;;;;;;;;;3.00;3.00;;;;;13.45;91.99;99276.63;6284129;20;2746162;-45
2023/07/27 03:09:10;;;;;;;;;3.40;3.40;;;;;13.46;92.87;99272.09;6307203;20;2752868;-46
2023/07/27 03:11:37;;;;;;;;;3.00;3.00;;;;;13.56;92.05;99276.63;6316732;20;2746272;-47
2023/07/27 03:14:05;;;;;;;;;3.00;3.00;;;;;13.65;91.75;99283.13;6304467;20;1805584;-46
2023/07/27 03:16:33;;;;;;;;;3.00;3.00;;;;;13.50;92.15;99278.94;6313039;20;2745134;-47
2023/07/27 03:19:01;;;;;;;;;6.00;3.00;;;;;13.60;92.08;99285.31;6284273;20;2735734;-46
2023/07/27 03:21:28;;;;;;;;;2.00;2.00;;;;;13.55;92.28;99282.13;6282506;20;2751389;-49
2023/07/27 03:23:56;;;;;;;;;3.00;3.00;;;;;13.52;92.50;99283.25;6282910;20;2734673;-46
2023/07/27 03:26:23;;;;;;;;;2.00;2.00;;;;;13.43;92.56;99278.59;6284681;20;2728443;-45
2023/07/27 03:28:50;;;;;;;;;3.00;3.00;;;;;13.52;92.45;99277.84;6283854;20;2748298;-46
2023/07/27 03:31:24;;;;;;;;;5.50;4.00;;;;;13.41;92.80;99282.41;6282730;20;2745070;-45
2023/07/27 03:33:52;;;;;;;;;6.00;5.00;;;;;13.42;92.93;99279.56;6285135;20;2746187;-47
2023/07/27 03:36:20;;;;;;;;;4.00;4.00;;;;;13.48;92.86;99287.19;6282750;20;2742032;-47
2023/07/27 03:38:48;;;;;;;;;3.00;3.00;;;;;13.50;92.78;99295.97;6284598;20;2742955;-45
2023/07/27 03:41:15;;;;;;;;;4.00;3.00;;;;;13.63;92.43;99295.84;6280856;20;2744042;-48
2023/07/27 03:43:42;;;;;;;;;3.00;3.00;;;;;13.64;92.09;99303.00;6281575;20;2750286;-46
2023/07/27 03:46:10;;;;;;;;;3.00;3.00;;;;;13.59;92.28;99307.91;6284827;20;2732787;-46
2023/07/27 03:48:37;;;;;;;;;3.00;3.00;;;;;13.59;92.27;99314.13;6279173;20;2751351;-46
2023/07/27 03:51:04;;;;;;;;;4.00;4.00;;;;;13.66;92.12;99321.72;6283305;20;2745105;-46
2023/07/27 03:53:32;;;;;;;;;4.00;4.00;;;;;13.59;92.28;99316.84;6281263;20;2754429;-48
2023/07/27 03:56:01;;;;;;;;;3.00;3.00;;;;;13.69;92.12;99321.47;6284392;20;2748238;-46
2023/07/27 03:58:29;;;;;;;;;4.00;4.00;;;;;13.66;92.45;99327.97;6279840;20;2756562;-45
2023/07/27 04:00:57;;;;;;;;;3.00;3.00;;;;;13.74;92.36;99325.53;6284126;20;2740912;-46
2023/07/27 04:03:24;;;;;;;;;3.50;3.50;;;;;13.66;92.47;99319.88;6280999;20;2754488;-48
2023/07/27 04:05:52;;;;;;;;;3.00;3.00;;;;;13.71;93.28;99323.06;6285000;20;2752453;-46
2023/07/27 04:08:19;;;;;;;;;5.00;4.00;;;;;13.83;92.13;99324.78;6281028;20;2747242;-46
2023/07/27 04:10:46;;;;;;;;;5.00;5.00;;;;;13.92;92.16;99330.44;6283002;20;2748246;-45
2023/07/27 04:13:14;;;;;;;;;9.00;5.00;;;;;13.90;91.66;99329.69;6282725;20;2742052;-45
2023/07/27 04:15:42;;;;;;;;;3.00;3.00;;;;;14.04;91.27;99329.44;6281402;20;2748231;-45
2023/07/27 04:18:09;;;;;;;;;5.00;4.00;;;;;14.05;90.95;99323.91;6282513;20;2754492;-49
2023/07/27 04:20:37;;;;;;;;;3.00;3.00;;;;;14.15;90.84;99340.22;6285673;20;2729471;-44
2023/07/27 04:23:04;;;;;;;;;3.00;3.00;;;;;14.22;91.15;99337.88;6282785;20;2735709;-46
2023/07/27 04:25:31;;;;;;;;;3.00;3.00;;;;;14.37;91.24;99338.44;6283362;20;2744434;-47
2023/07/27 04:27:59;;;;;;;;;3.50;3.50;;;;;14.21;91.12;99336.13;6281924;20;2754545;-49
2023/07/27 04:30:26;;;;;;;;;3.00;3.00;;;;;14.38;90.75;99341.03;6283880;20;2738994;-47
2023/07/27 04:32:53;;;;;;;;;3.00;3.00;;;;;14.54;89.68;99346.03;6283128;20;2744007;-46
2023/07/27 04:35:20;;;;;;;;;4.00;4.00;;;;;14.53;89.49;99343.44;6283125;20;2754561;-48
2023/07/27 04:37:48;;;;;;;;;3.50;3.50;;;;;14.52;89.14;99347.97;6281248;20;2746475;-45
2023/07/27 04:40:15;;;;;;;;;3.00;3.00;;;;;14.71;88.13;99342.75;6284450;20;2732570;-53
2023/07/27 04:42:42;;;;;;;;;3.00;3.00;;;;;14.64;88.29;99351.50;6282364;20;2744116;-45
2023/07/27 04:45:10;;;;;;;;;4.00;4.00;;;;;14.85;87.65;99354.25;6284309;20;2748319;-48
2023/07/27 04:47:37;;;;;;;;;4.50;3.50;;;;;14.86;87.15;99355.97;6281050;20;2756508;-47
2023/07/27 04:50:05;;;;;;;;;5.00;4.00;;;;;15.02;86.99;99359.09;6283869;20;2750381;-47
2023/07/27 04:52:32;;;;;;;;;5.00;5.00;;;;;15.09;86.04;99357.59;6283834;20;2750401;-46
2023/07/27 04:55:00;;;;;;;;;3.00;3.00;;;;;15.17;86.61;99353.38;6280792;20;2747285;-51
2023/07/27 04:57:27;;;;;;;;;3.00;3.00;;;;;15.39;86.38;99353.22;6283679;20;2729546;-53
2023/07/27 04:59:54;;;;;;;;;3.50;3.50;;;;;15.32;86.08;99357.44;6280341;20;2752415;-54
2023/07/27 05:02:21;;;;;;;;;3.00;3.00;;;;;15.55;84.58;99347.31;6283587;20;2736775;-53
2023/07/27 05:04:51;;;;;;;;;4.00;4.00;;;;;15.56;84.46;99362.56;6281485;20;2751522;-55
2023/07/27 05:07:20;;;;;;;;;2.50;2.50;;;;;15.82;83.76;99363.00;6284607;20;2740034;-50
2023/07/27 05:09:48;;;;;;;;;6.00;3.50;;;;;16.02;81.96;99362.09;6278605;20;2750887;-47
2023/07/27 05:12:15;;;;;;;;;3.00;3.00;;;;;16.38;79.93;99373.31;6285440;20;2727410;-49
2023/07/27 05:14:42;;;;;;;;;4.50;4.00;;;;;16.34;80.73;99381.84;6281660;20;2747556;-53
2023/07/27 05:17:11;;;;;;;;;4.00;4.00;;;;;16.20;80.96;99372.28;6305734;20;2740994;-53
2023/07/27 05:19:39;;;;;;;;;5.00;3.00;;;;;16.40;81.61;99390.31;6315422;20;2749303;-56
2023/07/27 05:22:06;;;;;;;;;4.00;4.00;;;;;16.25;80.62;99388.97;6283354;20;2746204;-53
2023/07/27 05:24:33;;;;;;;;;4.00;4.00;;;;;17.31;77.73;99399.09;6284580;20;2755456;-55
2023/07/27 05:27:03;;;;;;;;;4.20;4.20;;;;;17.15;76.79;99406.09;6304257;20;2738904;-48
2023/07/27 05:29:30;;;;;;;;;3.00;3.00;;;;;17.10;76.14;99418.22;6314154;20;2737869;-52
2023/07/27 05:31:57;;;;;;;;;4.50;4.50;;;;;17.23;75.65;99406.25;6281452;20;2739880;-53
2023/07/27 05:34:25;;;;;;;;;6.50;5.00;;;;;17.16;76.75;99418.66;6281949;20;2739962;-54
2023/07/27 05:36:55;;;;;;;;;7.57;5.29;;;;;17.76;75.65;99417.44;6323615;20;3441947;-56
2023/07/27 05:39:24;;;;;;;;;7.20;7.20;;;;;17.88;74.75;99423.59;6337726;20;2750332;-52
2023/07/27 05:41:52;;;;;;;;;5.00;5.00;;;;;17.73;74.54;99436.72;6313106;20;2735951;-53
2023/07/27 05:44:21;;;;;;;;;3.40;3.40;;;;;17.45;75.30;99433.06;6309391;20;2756567;-50
2023/07/27 05:46:55;;;;;;;;;3.00;3.00;;;;;17.57;74.41;99436.47;6293446;20;2632513;-51
2023/07/27 05:49:22;;;;;;;;;3.00;3.00;;;;;17.65;74.85;99443.91;6290074;20;2750294;-51
2023/07/27 05:51:50;;;;;;;;;3.00;3.00;;;;;17.69;74.31;99445.31;6276693;20;2736873;-50
2023/07/27 05:54:17;;;;;;;;;4.50;3.00;;;;;17.63;74.32;99435.88;6288572;20;2740899;-52
2023/07/27 05:56:46;;;;;;;;;4.80;4.00;;;;;17.48;73.92;99437.34;6311326;20;2747170;-51
2023/07/27 05:59:13;;;;;;;;;4.00;3.00;;;;;17.56;73.21;99445.63;6319459;20;2744005;-49
2023/07/27 06:01:41;;;;;;;;;3.50;3.50;;;;;17.75;73.08;99442.88;6286902;20;2757094;-53
2023/07/27 06:04:08;;;;;;;;;4.50;4.00;;;;;17.84;72.52;99440.31;6285731;20;2755442;-53
2023/07/27 06:06:36;;;;;;;;;3.00;3.00;;;;;18.01;71.84;99447.72;6288275;20;2752397;-52
2023/07/27 06:09:04;;;;;;;;;6.00;4.00;;;;;18.08;72.82;99454.25;6289404;20;2751434;-50
2023/07/27 06:11:31;;;;;;;;;3.00;3.00;;;;;17.90;70.79;99448.72;6290014;20;2731571;-51
2023/07/27 06:14:02;;;;;;;;;2.43;2.43;;;;;18.07;70.81;99449.81;6333178;20;3441976;-52
2023/07/27 06:16:29;;;;;;;;;5.00;3.00;;;;;18.14;71.27;99450.94;6315239;20;2750278;-49
2023/07/27 06:18:57;;;;;;;;;4.00;4.00;;;;;18.13;69.88;99449.22;6286231;20;2753413;-48
2023/07/27 06:21:24;;;;;;;;;1.50;1.50;;;;;18.13;69.24;99454.66;6290312;20;2733628;-49
2023/07/27 06:23:52;;;;;;;;;5.00;3.00;;;;;18.44;69.87;99451.69;6289904;20;2746155;-52
2023/07/27 06:26:19;;;;;;;;;3.00;3.00;;;;;18.15;69.34;99462.66;6290687;20;2744019;-49
2023/07/27 06:28:46;;;;;;;;;2.00;2.00;;;;;18.50;68.53;99451.06;6290380;20;2739870;-48
2023/07/27 06:31:13;;;;;;;;;4.00;4.00;;;;;18.47;67.66;99450.53;6284931;20;2753404;-55
2023/07/27 06:33:41;;;;;;;;;4.00;4.00;;;;;18.74;67.26;99455.09;6287976;20;2752561;-50
2023/07/27 06:36:12;;;;;;;;;4.00;2.67;;;;;18.94;66.51;99448.53;6291819;20;2731547;-49
2023/07/27 06:38:41;;;;;;;;;4.00;3.60;;;;;19.19;65.15;99452.34;6339258;20;2750323;-49
2023/07/27 06:41:09;;;;;;;;;2.67;2.67;;;;;19.26;65.42;99458.03;6285483;20;2730481;-62
2023/07/27 06:43:37;;;;;;;;;2.00;2.00;;;;;19.73;64.08;99455.06;6318621;20;2739957;-52
2023/07/27 06:46:05;;;;;;;;;1.67;1.67;;;;;19.81;62.51;99457.84;6315218;20;2742070;-47
2023/07/27 06:48:33;;;;;;;;;2.00;2.00;;;;;20.28;62.37;99465.66;6317939;20;2735841;-53
2023/07/27 06:51:01;;;;;;;;;2.33;2.33;;;;;20.63;59.67;99473.84;6316756;20;2748328;-48
2023/07/27 06:53:29;;;;;;;;;3.00;3.00;;;;;20.32;60.73;99469.75;6318559;20;2742015;-52
2023/07/27 06:55:58;;;;;;;;;3.33;3.00;;;;;21.41;58.58;99468.09;6313978;20;2749243;-54
2023/07/27 06:58:25;;;;;;;;;2.67;2.67;;;;;21.32;55.86;99477.25;6316419;20;2734657;-50
2023/07/27 07:00:55;;;;;;;;;1.60;1.60;;;;;21.30;55.47;99472.00;6339614;20;2725361;-51
2023/07/27 07:03:23;;;;;;;;;2.67;2.00;;;;;21.70;53.39;99473.91;6319407;20;2764948;-48
2023/07/27 07:05:55;;;;;;;;;3.60;3.40;;;;;22.08;52.81;99482.41;6339244;20;2756591;-50
2023/07/27 07:08:24;;;;;;;;;2.00;2.00;;;;;22.39;52.10;99484.41;6304586;20;2732563;-51
2023/07/27 07:10:53;;;;;;;;;3.80;3.80;;;;;22.82;52.08;99478.59;6338362;20;2756516;-51
2023/07/27 07:13:23;;;;;;;;;3.80;3.80;;;;;22.60;51.36;99472.91;6308394;20;2749285;-54
2023/07/27 07:15:52;;;;;;;;;4.40;2.60;;;;;22.79;49.67;99474.34;6305547;20;2738345;-50
2023/07/27 07:18:21;;;;;;;;;2.20;2.20;;;;;22.38;49.57;99477.25;6336140;20;2737822;-50
2023/07/27 07:20:50;;;;;;;;;2.40;2.20;;;;;23.06;49.56;99474.91;6336746;20;2752376;-53
2023/07/27 07:23:21;;;;;;;;;2.00;2.00;;;;;23.08;50.02;99479.19;6305799;20;2726525;-48
2023/07/27 07:25:50;;;;;;;;;3.00;3.00;;;;;23.11;49.14;99476.06;6338801;20;2756578;-52
2023/07/27 07:28:19;;;;;;;;;1.00;0.80;;;;;23.26;49.71;99476.16;6304947;20;2732566;-53
2023/07/27 07:30:48;;;;;;;;;3.00;3.00;;;;;23.19;50.26;99486.13;6339404;20;2744079;-50
2023/07/27 07:33:17;;;;;;;;;3.80;3.80;;;;;23.57;48.84;99478.84;6336762;20;2741951;-52
2023/07/27 07:35:46;;;;;;;;;2.00;2.00;;;;;23.94;47.58;99484.56;6309599;20;2727391;-48
2023/07/27 07:38:15;;;;;;;;;2.60;2.60;;;;;23.79;48.21;99490.00;6337241;20;2746153;-50
2023/07/27 07:40:46;;;;;;;;;3.60;1.80;;;;;23.90;46.36;99485.97;6306790;20;2727881;-51
2023/07/27 07:43:15;;;;;;;;;3.40;2.40;;;;;24.12;46.23;99482.34;6338170;20;2746120;-53
2023/07/27 07:45:43;;;;;;;;;1.33;1.33;;;;;24.18;47.04;99487.06;6284871;20;2750410;-51
2023/07/27 07:48:12;;;;;;;;;3.00;3.00;;;;;24.99;45.14;99487.16;6338091;20;2740949;-53
2023/07/27 07:50:41;;;;;;;;;3.40;3.40;;;;;24.66;44.26;99486.72;6336945;20;2748243;-53
2023/07/27 07:53:10;;;;;;;;;2.80;2.80;;;;;23.72;45.05;99484.41;6304447;20;2748243;-54
2023/07/27 07:55:57;;;;;;;;;1.80;1.60;;;;;23.94;42.90;99479.94;6307657;20;2733570;-51
2023/07/27 07:58:26;;;;;;;;;2.40;2.40;;;;;23.49;43.57;99486.28;6339993;20;2748318;-50
2023/07/27 08:00:56;;;;;;;;;2.40;2.40;;;;;24.03;44.12;99486.19;6337810;20;2724246;-54
2023/07/27 08:03:25;;;;;;;;;1.20;1.20;;;;;23.78;42.19;99480.09;6337770;20;2750284;-50
2023/07/27 08:05:54;;;;;;;;;1.00;1.00;;;;;23.91;42.53;99480.31;6305738;20;2744090;-52
2023/07/27 08:08:23;;;;;;;;;1.60;1.60;;;;;24.25;41.47;99482.53;6302661;20;2751502;-54
2023/07/27 08:10:52;;;;;;;;;2.60;2.60;;;;;23.66;42.12;99483.22;6307075;20;2738882;-52
2023/07/27 08:13:21;;;;;;;;;2.60;2.60;;;;;23.94;40.95;99485.41;6335173;20;2735071;-49
2023/07/27 08:15:54;;;;;;;;;2.00;2.00;;;;;24.06;39.71;99478.44;6336400;20;2744147;-52
2023/07/27 08:18:23;;;;;;;;;1.00;1.00;;;;;24.04;40.74;99479.66;6303153;20;2730540;-51
2023/07/27 08:21:06;;;;;;;;;3.80;2.80;;;;;24.37;40.58;99482.06;6338345;20;2736799;-52
2023/07/27 08:23:35;;;;;;;;;3.00;3.00;;;;;24.56;39.38;99480.69;6340246;20;2746161;-50
2023/07/27 08:26:08;;;;;;;;;3.00;3.00;;;;;24.57;40.57;99477.75;6278590;20;2755530;-54
2023/07/27 08:28:37;;;;;;;;;1.60;1.60;;;;;24.55;39.15;99482.56;6337349;20;2744045;-54
2023/07/27 08:31:06;;;;;;;;;10.67;10.67;;;;;24.20;40.67;99476.75;6276521;20;3514975;-49
2023/07/27 08:33:34;;;;;;;;;14.33;14.00;;;;;24.45;40.15;99471.03;6309513;20;3505513;-51
2023/07/27 08:36:02;;;;;;;;;1.00;1.00;;;;;24.27;41.42;99469.47;6282437;20;2744110;-53
2023/07/27 08:38:31;;;;;;;;;4.40;1.00;;;;;24.26;40.83;99476.00;6335864;20;2747209;-53
2023/07/27 08:41:01;;;;;;;;;1.00;1.00;;;;;24.20;40.14;99481.41;6318001;20;2744146;-54
2023/07/27 08:43:29;;;;;;;;;9.00;9.00;;;;;24.03;41.38;99480.69;6282148;20;2736253;-53
2023/07/27 08:45:59;;;;;;;;;6.00;6.00;;;;;24.03;40.42;99478.81;6319196;20;2746124;-50
2023/07/27 08:48:29;;;;;;;;;1.00;1.00;;;;;24.46;40.18;99478.22;6338636;20;2722209;-51
2023/07/27 08:50:59;;;;;;;;;3.00;3.00;;;;;24.02;40.57;99476.25;6329005;20;2754453;-55
2023/07/27 08:53:30;;;;;;;;;2.80;2.80;;;;;24.09;38.99;99477.19;6303088;20;2739873;-54
2023/07/27 08:55:59;;;;;;;;;3.80;3.00;;;;;24.57;39.58;99483.25;6334822;20;2750319;-56
2023/07/27 08:58:27;;;;;;;;;3.00;3.00;;;;;24.24;40.16;99483.56;6283215;20;2738817;-50
2023/07/27 09:00:56;;;;;;;;;3.40;2.20;;;;;24.45;38.60;99476.50;6331844;20;2745186;-54
2023/07/27 09:03:24;;;;;;;;;4.33;3.00;;;;;24.41;39.00;99470.53;6277898;20;2741998;-52
2023/07/27 09:05:59;;;;;;;;;2.00;1.40;;;;;23.80;40.83;99465.16;6337575;20;2735737;-56
2023/07/27 09:08:29;;;;;;;;;4.00;2.00;;;;;25.24;40.34;99473.09;6302563;20;2732638;-55
2023/07/27 09:11:07;;;;;;;;;1.40;1.40;;;;;24.12;40.90;99467.75;6334897;20;2727387;-56
2023/07/27 09:13:37;;;;;;;;;3.00;3.00;;;;;24.49;41.08;99466.88;6332828;20;2738853;-55
2023/07/27 09:16:08;;;;;;;;;2.80;2.80;;;;;24.71;40.67;99465.03;6331852;20;2748266;-52
2023/07/27 09:18:37;;;;;;;;;12.00;7.67;;;;;24.67;41.05;99475.56;6276796;20;2778511;-53
2023/07/27 09:21:08;;;;;;;;;3.40;3.40;;;;;24.99;40.44;99470.69;6339931;20;2750273;-55
2023/07/27 09:23:38;;;;;;;;;2.00;2.00;;;;;24.29;40.12;99467.38;6309539;20;2752362;-53
2023/07/27 09:26:07;;;;;;;;;3.60;2.20;;;;;24.41;41.13;99466.91;6310182;20;2752450;-53
2023/07/27 09:28:36;;;;;;;;;3.20;2.80;;;;;24.50;40.84;99469.41;6340451;20;2746139;-56
2023/07/27 09:31:05;;;;;;;;;3.80;3.80;;;;;25.10;40.46;99472.94;6310729;20;2745113;-56
2023/07/27 09:33:34;;;;;;;;;2.00;2.00;;;;;25.03;39.18;99471.13;6308094;20;2746730;-56
2023/07/27 09:36:06;;;;;;;;;2.60;2.60;;;;;25.08;39.74;99468.66;6311392;20;2746166;-57
2023/07/27 09:38:35;;;;;;;;;2.20;2.00;;;;;25.25;37.14;99472.91;6339562;20;2736158;-55
2023/07/27 09:41:08;;;;;;;;;3.20;3.20;;;;;24.92;37.95;99469.75;6307094;20;2756791;-55
2023/07/27 09:43:38;;;;;;;;;2.40;2.40;;;;;25.16;38.09;99466.66;6307650;20;2729463;-53
2023/07/27 09:46:07;;;;;;;;;2.20;2.20;;;;;24.69;36.90;99465.22;6339778;20;2725297;-53
2023/07/27 09:48:37;;;;;;;;;2.40;2.40;;;;;25.32;37.22;99465.56;6341088;20;2727492;-52
2023/07/27 09:51:07;;;;;;;;;6.67;6.00;;;;;25.34;38.23;99462.66;6310088;20;3500492;-54
2023/07/27 09:53:38;;;;;;;;;2.00;2.00;;;;;25.47;37.22;99464.69;6335063;20;2734682;-55
2023/07/27 09:56:08;;;;;;;;;3.60;3.60;;;;;25.39;37.21;99454.66;6335633;20;2745059;-55
2023/07/27 09:58:39;;;;;;;;;2.40;2.40;;;;;23.42;39.62;99451.38;6307376;20;2750310;-56
2023/07/27 10:01:09;;;;;;;;;2.60;2.60;;;;;23.65;39.84;99458.75;6307456;20;2744046;-52
2023/07/27 10:03:38;;;;;;;;;2.40;2.40;;;;;25.10;38.76;99463.84;6306436;20;2734660;-54
2023/07/27 10:06:08;;;;;;;;;3.40;2.40;;;;;24.98;37.63;99452.47;6341471;20;2729472;-52
2023/07/27 10:08:37;;;;;;;;;1.60;1.60;;;;;23.53;40.46;99443.75;6337319;20;2724280;-51
2023/07/27 10:11:06;;;;;;;;;1.20;1.20;;;;;23.36;39.50;99454.88;6337360;20;2748203;-51
2023/07/27 10:13:41;;;;;;;;;3.60;2.40;;;;;23.71;38.46;99446.19;6308737;20;2748190;-50
2023/07/27 10:16:17;;;;;;;;;2.80;2.80;;;;;24.78;36.91;99452.25;6304928;20;2738980;-54
2023/07/27 10:18:47;;;;;;;;;1.60;1.60;;;;;24.01;38.61;99437.03;6339161;20;2752741;-50
2023/07/27 10:21:28;;;;;;;;;2.60;2.60;;;;;22.87;41.10;99446.91;6307154;20;2735699;-50
2023/07/27 10:24:02;;;;;;;;;3.80;2.60;;;;;23.49;41.14;99445.19;6340330;20;2752363;-51
2023/07/27 10:26:49;;;;;;;;;2.20;1.00;;;;;24.93;37.75;99452.22;6309499;20;2736754;-54
2023/07/27 10:29:24;;;;;;;;;4.67;3.67;;;;;25.71;36.57;99452.41;6310762;20;2740917;-52
2023/07/27 10:32:06;;;;;;;;;1.80;1.80;;;;;25.53;35.91;99450.13;6338237;20;2740985;-53
2023/07/27 10:34:37;;;;;;;;;4.40;2.80;;;;;25.06;35.93;99437.78;6307669;20;2746127;-50
2023/07/27 10:37:16;;;;;;;;;2.60;2.40;;;;;23.74;38.06;99430.25;6306231;20;2738954;-56
2023/07/27 10:39:51;;;;;;;;;6.67;2.67;;;;;23.59;38.73;99432.94;6312096;20;3468013;-51
2023/07/27 10:42:25;;;;;;;;;1.40;1.40;;;;;24.83;35.68;99441.56;6339352;20;2737811;-53
2023/07/27 10:44:57;;;;;;;;;0.80;0.80;;;;;25.29;34.67;99437.66;6344323;20;2735744;-51
2023/07/27 10:47:32;;;;;;;;;1.60;1.40;;;;;24.81;36.80;99440.03;6335158;20;2752374;-55
2023/07/27 10:50:01;;;;;;;;;6.33;3.00;;;;;25.24;36.13;99434.63;6282985;20;2754440;-53
2023/07/27 10:52:34;;;;;;;;;1.80;1.80;;;;;25.92;35.73;99432.31;6333166;20;2738932;-54
2023/07/27 10:55:07;;;;;;;;;2.00;2.00;;;;;26.27;34.29;99428.50;6337178;20;2738885;-55
2023/07/27 10:57:36;;;;;;;;;1.40;1.40;;;;;25.06;35.90;99419.41;6338010;20;2741967;-55
2023/07/27 11:00:07;;;;;;;;;2.00;2.00;;;;;24.77;37.48;99416.75;6306694;20;2743007;-51
2023/07/27 11:02:36;;;;;;;;;3.00;3.00;;;;;25.39;36.49;99424.44;6283705;20;2754548;-52
2023/07/27 11:05:07;;;;;;;;;2.00;2.00;;;;;25.51;35.82;99422.00;6339205;20;2734717;-53
2023/07/27 11:07:42;;;;;;;;;2.80;2.40;;;;;25.49;36.06;99424.94;6337098;20;2731660;-52
2023/07/27 11:10:17;;;;;;;;;0.00;0.00;;;;;25.30;35.60;99420.94;6307052;20;2729466;-56
2023/07/27 11:12:49;;;;;;;;;2.20;2.20;;;;;25.28;37.14;99417.56;6339266;20;2744116;-57
2023/07/27 11:15:22;;;;;;;;;4.20;4.20;;;;;24.39;37.48;99414.97;6303242;20;2748745;-54
2023/07/27 11:17:56;;;;;;;;;1.60;1.60;;;;;23.81;37.61;99403.78;6307265;20;2720077;-52
2023/07/27 11:20:30;;;;;;;;;2.40;2.40;;;;;25.21;36.28;99415.78;6338120;20;2727438;-54
2023/07/27 11:22:59;;;;;;;;;1.00;1.00;;;;;25.43;36.07;99417.47;6340328;20;2738851;-54
2023/07/27 11:25:35;;;;;;;;;1.00;1.00;;;;;25.81;35.57;99407.03;6339878;20;2743987;-54
2023/07/27 11:28:04;;;;;;;;;0.40;0.40;;;;;26.38;34.40;99401.47;6306447;20;2727403;-50
2023/07/27 11:30:36;;;;;;;;;1.00;1.00;;;;;26.27;34.90;99405.66;6337384;20;2742014;-56